createdAt,value
2018-09-11T00:00:24.090Z,83.24
2018-09-11T00:02:52.978Z,83.65
2018-09-11T00:05:21.935Z,84.33
2018-09-11T00:07:50.817Z,84.44
2018-09-11T00:10:19.670Z,84.33
2018-09-11T00:12:48.567Z,84.42
2018-09-11T00:15:17.614Z,84.24
2018-09-11T00:17:46.689Z,83.99
2018-09-11T00:20:15.723Z,84.00
2018-09-11T00:22:44.402Z,83.47
2018-09-11T00:25:13.320Z,83.97
2018-09-11T00:27:42.338Z,83.69
2018-09-11T00:30:11.308Z,81.58
2018-09-11T00:32:40.277Z,82.00
2018-09-11T00:35:09.396Z,81.47
2018-09-11T00:37:38.169Z,81.61
2018-09-11T00:40:06.940Z,81.06
2018-09-11T00:42:35.732Z,81.07
2018-09-11T00:45:04.683Z,81.06
2018-09-11T00:47:33.444Z,81.37
2018-09-11T00:52:45.270Z,81.48
2018-09-11T00:55:13.848Z,80.56
2018-09-11T00:57:42.614Z,80.72
2018-09-11T01:00:11.433Z,80.12
2018-09-11T01:02:40.193Z,80.21
2018-09-11T01:05:08.887Z,79.60
2018-09-11T01:07:37.690Z,79.53
2018-09-11T01:10:08.819Z,80.24
2018-09-11T01:12:37.879Z,80.50
2018-09-11T01:15:08.449Z,80.33
2018-09-11T01:17:37.356Z,79.85
2018-09-11T01:20:06.843Z,80.99
2018-09-11T01:22:35.579Z,80.93
2018-09-11T01:25:04.445Z,81.53
2018-09-11T01:27:33.215Z,81.77
2018-09-11T01:30:02.011Z,81.75
2018-09-11T01:32:30.833Z,82.18
2018-09-11T01:34:59.599Z,82.34
2018-09-11T01:37:28.347Z,82.24
2018-09-11T01:39:57.082Z,82.50
2018-09-11T01:42:26.075Z,82.53
2018-09-11T01:44:54.887Z,82.69
2018-09-11T01:47:23.707Z,82.54
2018-09-11T01:49:52.591Z,82.74
2018-09-11T01:52:21.557Z,81.78
2018-09-11T01:54:50.394Z,81.78
2018-09-11T01:57:19.342Z,81.19
2018-09-11T01:59:48.250Z,80.63
2018-09-11T02:02:17.272Z,80.76
2018-09-11T02:04:46.210Z,80.42
2018-09-11T02:07:14.978Z,80.64
2018-09-11T02:09:43.686Z,81.01
2018-09-11T02:12:12.687Z,80.54
2018-09-11T02:14:41.278Z,81.05
2018-09-11T02:17:09.966Z,81.94
2018-09-11T02:19:39.018Z,82.85
2018-09-11T02:22:08.141Z,82.66
2018-09-11T02:24:37.074Z,83.19
2018-09-11T02:27:06.095Z,83.19
2018-09-11T02:29:34.788Z,83.01
2018-09-11T02:32:03.670Z,83.11
2018-09-11T02:34:32.442Z,83.67
2018-09-11T02:37:01.319Z,83.34
2018-09-11T02:39:30.269Z,83.24
2018-09-11T02:41:59.355Z,83.56
2018-09-11T02:44:28.113Z,83.56
2018-09-11T02:46:57.031Z,83.42
2018-09-11T02:49:25.694Z,83.28
2018-09-11T02:51:54.756Z,83.45
2018-09-11T02:54:23.745Z,82.98
2018-09-11T02:56:52.403Z,83.05
2018-09-11T02:59:21.162Z,83.22
2018-09-11T03:01:50.032Z,82.86
2018-09-11T03:04:19.075Z,82.98
2018-09-11T03:06:47.740Z,82.77
2018-09-11T03:09:16.583Z,83.02
2018-09-11T03:11:45.449Z,82.63
2018-09-11T03:14:14.169Z,83.10
2018-09-11T03:16:42.835Z,83.51
2018-09-11T03:19:11.490Z,83.48
2018-09-11T03:21:40.142Z,83.51
2018-09-11T03:24:08.932Z,83.53
2018-09-11T03:26:37.790Z,83.78
2018-09-11T03:29:06.619Z,83.98
2018-09-11T03:31:35.309Z,84.01
2018-09-11T03:34:04.341Z,83.69
2018-09-11T03:36:33.077Z,83.36
2018-09-11T03:39:01.775Z,83.86
2018-09-11T03:41:30.715Z,83.94
2018-09-11T03:43:59.562Z,83.59
2018-09-11T03:46:28.350Z,83.48
2018-09-11T03:48:57.060Z,83.60
2018-09-11T03:51:25.801Z,83.40
2018-09-11T03:53:54.565Z,83.55
2018-09-11T03:56:23.669Z,83.35
2018-09-11T03:58:52.418Z,83.44
2018-09-11T04:01:21.678Z,83.36
2018-09-11T04:03:50.440Z,83.80
2018-09-11T04:06:19.592Z,83.69
2018-09-11T04:08:48.441Z,83.32
2018-09-11T04:11:17.209Z,83.44
2018-09-11T04:13:46.131Z,83.57
2018-09-11T04:16:15.059Z,84.04
2018-09-11T04:18:43.781Z,83.91
2018-09-11T04:21:12.700Z,83.59
2018-09-11T04:23:41.407Z,83.76
2018-09-11T04:26:10.727Z,84.40
2018-09-11T04:28:39.578Z,84.03
2018-09-11T04:31:08.544Z,84.45
2018-09-11T04:33:37.711Z,84.75
2018-09-11T04:36:06.775Z,84.90
2018-09-11T04:38:35.569Z,84.96
2018-09-11T04:41:04.373Z,85.22
2018-09-11T04:43:33.163Z,85.03
2018-09-11T04:46:02.020Z,85.23
2018-09-11T04:48:30.979Z,85.11
2018-09-11T04:50:59.743Z,85.30
2018-09-11T04:53:28.485Z,85.23
2018-09-11T04:55:57.347Z,85.97
2018-09-11T04:58:26.109Z,85.52
2018-09-11T05:00:54.794Z,85.58
2018-09-11T05:03:23.482Z,85.13
2018-09-11T05:05:52.478Z,85.45
2018-09-11T05:08:21.509Z,85.01
2018-09-11T05:10:50.383Z,85.04
2018-09-11T05:13:19.159Z,85.22
2018-09-11T05:15:48.114Z,85.11
2018-09-11T05:18:16.990Z,84.47
2018-09-11T05:20:45.688Z,84.64
2018-09-11T05:23:14.452Z,84.70
2018-09-11T05:25:43.307Z,84.51
2018-09-11T05:28:12.201Z,84.48
2018-09-11T05:30:40.823Z,84.00
2018-09-11T05:33:09.655Z,83.59
2018-09-11T05:35:38.317Z,83.69
2018-09-11T05:38:07.461Z,83.69
2018-09-11T05:40:36.293Z,83.59
2018-09-11T05:43:05.066Z,83.93
2018-09-11T05:45:33.771Z,81.75
2018-09-11T05:48:02.459Z,81.79
2018-09-11T05:50:31.126Z,82.75
2018-09-11T05:52:59.799Z,82.66
2018-09-11T05:55:29.002Z,82.44
2018-09-11T05:57:57.672Z,82.31
2018-09-11T06:00:26.503Z,82.30
2018-09-11T06:02:55.189Z,81.78
2018-09-11T06:05:23.901Z,81.50
2018-09-11T06:07:52.765Z,82.07
2018-09-11T06:10:21.912Z,81.42
2018-09-11T06:12:50.705Z,81.64
2018-09-11T06:15:19.720Z,81.80
2018-09-11T06:17:48.456Z,82.01
2018-09-11T06:20:17.260Z,82.05
2018-09-11T06:22:45.958Z,81.35
2018-09-11T06:25:14.754Z,80.85
2018-09-11T06:27:43.670Z,80.56
2018-09-11T06:30:12.354Z,80.34
2018-09-11T06:32:41.071Z,79.36
2018-09-11T06:35:09.760Z,79.83
2018-09-11T06:37:38.483Z,78.84
2018-09-11T06:40:07.647Z,78.82
2018-09-11T06:42:36.412Z,78.41
2018-09-11T06:45:05.381Z,78.47
2018-09-11T06:47:34.135Z,78.16
2018-09-11T06:50:02.860Z,78.04
2018-09-11T06:52:31.674Z,77.99
2018-09-11T06:55:00.542Z,78.35
2018-09-11T06:57:29.569Z,78.64
2018-09-11T06:59:58.257Z,78.69
2018-09-11T07:02:27.075Z,78.50
2018-09-11T07:04:55.808Z,78.86
2018-09-11T07:07:24.589Z,78.32
2018-09-11T07:09:53.422Z,78.14
2018-09-11T07:12:22.342Z,76.93
2018-09-11T07:14:51.095Z,75.92
2018-09-11T07:17:19.775Z,74.02
2018-09-11T07:19:48.434Z,73.97
2018-09-11T07:22:17.928Z,71.79
2018-09-11T07:24:46.934Z,72.37
2018-09-11T07:27:15.635Z,70.14
2018-09-11T07:29:45.058Z,70.30
2018-09-11T07:32:14.073Z,69.03
2018-09-11T07:34:42.942Z,66.74
2018-09-11T07:37:12.033Z,66.83
2018-09-11T07:39:40.833Z,67.24
2018-09-11T07:42:09.534Z,67.25
2018-09-11T07:44:38.356Z,65.10
2018-09-11T07:47:07.137Z,65.33
2018-09-11T07:49:35.796Z,66.10
2018-09-11T07:52:04.563Z,67.12
2018-09-11T07:54:33.236Z,67.24
2018-09-11T07:57:02.404Z,68.43
2018-09-11T07:59:31.036Z,69.26
2018-09-11T08:01:59.776Z,68.29
2018-09-11T08:04:28.593Z,69.01
2018-09-11T08:06:57.434Z,69.31
2018-09-11T08:09:26.074Z,68.63
2018-09-11T08:11:54.967Z,69.58
2018-09-11T08:14:23.838Z,69.21
2018-09-11T08:16:52.584Z,69.80
2018-09-11T08:19:21.257Z,68.93
2018-09-11T08:21:50.049Z,68.16
2018-09-11T08:24:19.427Z,67.10
2018-09-11T08:26:48.248Z,67.34
2018-09-11T08:29:17.519Z,67.83
2018-09-11T08:31:46.464Z,68.23
2018-09-11T08:37:10.973Z,68.06
2018-09-11T08:39:39.805Z,68.18
2018-09-11T08:42:08.813Z,68.47
2018-09-11T08:44:37.432Z,68.63
2018-09-11T08:47:06.194Z,67.99
2018-09-11T08:49:34.911Z,67.70
2018-09-11T08:52:03.832Z,67.67
2018-09-11T08:54:32.585Z,66.52
2018-09-11T08:57:01.339Z,66.99
2018-09-11T08:59:30.094Z,66.38
2018-09-11T09:01:59.385Z,67.06
2018-09-11T09:04:28.289Z,66.17
2018-09-11T09:06:57.004Z,66.58
2018-09-11T09:09:25.798Z,66.00
2018-09-11T09:11:54.623Z,66.54
2018-09-11T09:14:23.432Z,65.95
2018-09-11T09:16:52.159Z,65.23
2018-09-11T09:19:20.878Z,65.00
2018-09-11T09:21:49.969Z,64.93
2018-09-11T09:24:18.730Z,65.45
2018-09-11T09:26:47.484Z,65.40
2018-09-11T09:29:16.301Z,63.65
2018-09-11T09:31:45.267Z,64.24
2018-09-11T09:34:14.020Z,62.23
2018-09-11T09:36:42.752Z,61.72
2018-09-11T09:39:11.539Z,58.96
2018-09-11T09:41:40.355Z,57.05
2018-09-11T09:44:09.632Z,55.20
2018-09-11T09:46:38.793Z,57.21
2018-09-11T09:49:07.436Z,57.71
2018-09-11T09:51:36.343Z,58.48
2018-09-11T09:54:05.383Z,58.38
2018-09-11T09:56:34.088Z,54.84
2018-09-11T09:59:03.087Z,54.43
2018-09-11T10:01:37.174Z,54.77
2018-09-11T10:04:06.421Z,54.49
2018-09-11T10:06:35.273Z,52.91
2018-09-11T10:09:04.796Z,53.54
2018-09-11T10:11:33.576Z,53.51
2018-09-11T10:14:02.617Z,51.34
2018-09-11T10:16:31.354Z,50.73
2018-09-11T10:19:00.359Z,51.57
2018-09-11T10:21:29.092Z,50.10
2018-09-11T10:23:57.893Z,49.65
2018-09-11T10:26:26.784Z,49.29
2018-09-11T10:28:55.733Z,50.65
2018-09-11T10:31:24.708Z,50.42
2018-09-11T10:33:53.600Z,52.61
2018-09-11T10:36:22.530Z,54.29
2018-09-11T10:38:51.204Z,54.88
2018-09-11T10:41:19.886Z,55.44
2018-09-11T10:43:48.643Z,55.58
2018-09-11T10:46:17.260Z,55.71
2018-09-11T10:48:46.108Z,55.97
2018-09-11T10:51:15.024Z,54.89
2018-09-11T10:53:43.644Z,51.81
2018-09-11T10:56:12.555Z,51.97
2018-09-11T10:58:41.464Z,52.57
2018-09-11T11:01:10.233Z,52.32
2018-09-11T11:03:39.134Z,50.78
2018-09-11T11:06:08.051Z,49.86
2018-09-11T11:08:36.799Z,50.60
2018-09-11T11:11:05.671Z,48.87
2018-09-11T11:13:34.439Z,50.31
2018-09-11T11:16:03.400Z,47.43
2018-09-11T11:18:32.133Z,48.24
2018-09-11T11:21:01.011Z,50.41
2018-09-11T11:23:29.748Z,51.37
2018-09-11T11:25:59.067Z,52.42
2018-09-11T11:28:28.171Z,54.26
2018-09-11T11:30:57.013Z,53.82
2018-09-11T11:33:25.722Z,55.13
2018-09-11T11:35:54.529Z,55.11
2018-09-11T11:38:23.531Z,57.30
2018-09-11T11:40:52.184Z,56.83
2018-09-11T11:43:20.963Z,57.29
2018-09-11T11:45:50.115Z,54.84
2018-09-11T11:48:18.847Z,54.93
2018-09-11T11:50:47.689Z,54.96
2018-09-11T11:53:16.331Z,54.60
2018-09-11T11:55:45.584Z,55.50
2018-09-11T11:58:14.273Z,54.64
2018-09-11T12:00:43.692Z,54.43
2018-09-11T12:03:12.491Z,54.85
2018-09-11T12:05:41.116Z,55.22
2018-09-11T12:08:10.141Z,55.70
2018-09-11T12:10:38.780Z,56.63
2018-09-11T12:13:07.521Z,56.13
2018-09-11T12:15:36.272Z,56.31
2018-09-11T12:18:05.033Z,56.06
2018-09-11T12:20:33.903Z,55.19
2018-09-11T12:23:02.621Z,55.24
2018-09-11T12:25:31.315Z,54.85
2018-09-11T12:28:00.554Z,54.54
2018-09-11T12:30:30.209Z,53.51
2018-09-11T12:32:59.581Z,54.40
2018-09-11T12:35:28.261Z,54.63
2018-09-11T12:37:57.127Z,55.74
2018-09-11T12:40:25.951Z,57.97
2018-09-11T12:42:54.610Z,59.40
2018-09-11T12:45:24.237Z,61.37
2018-09-11T12:47:53.534Z,62.55
2018-09-11T12:50:23.027Z,62.84
2018-09-11T12:52:53.057Z,63.70
2018-09-11T12:55:22.253Z,63.50
2018-09-11T12:57:51.864Z,63.32
2018-09-11T13:00:22.557Z,63.93
2018-09-11T13:02:51.656Z,64.49
2018-09-11T13:05:20.936Z,64.68
2018-09-11T13:07:50.387Z,65.01
2018-09-11T13:10:19.152Z,65.38
2018-09-11T13:12:48.061Z,65.56
2018-09-11T13:15:16.997Z,65.18
2018-09-11T13:17:45.816Z,65.41
2018-09-11T13:20:14.996Z,65.24
2018-09-11T13:22:44.449Z,65.37
2018-09-11T13:25:13.747Z,65.28
2018-09-11T13:27:43.023Z,65.46
2018-09-11T13:30:12.573Z,66.17
2018-09-11T13:32:41.358Z,65.62
2018-09-11T13:35:10.307Z,65.84
2018-09-11T13:37:39.571Z,66.54
2018-09-11T13:40:08.346Z,65.91
2018-09-11T13:42:37.359Z,66.99
2018-09-11T13:45:07.684Z,66.93
2018-09-11T13:47:37.942Z,66.99
2018-09-11T13:50:07.509Z,67.15
2018-09-11T13:52:36.911Z,68.10
2018-09-11T13:55:06.223Z,67.12
2018-09-11T13:57:35.368Z,67.21
2018-09-11T14:00:04.735Z,67.04
2018-09-11T14:02:33.652Z,66.38
2018-09-11T14:05:02.466Z,65.97
2018-09-11T14:07:31.319Z,66.60
2018-09-11T14:10:00.101Z,66.41
2018-09-11T14:12:29.142Z,65.90
2018-09-11T14:14:57.978Z,66.49
2018-09-11T14:17:26.913Z,65.81
2018-09-11T14:19:55.571Z,64.14
2018-09-11T14:22:24.474Z,63.64
2018-09-11T14:24:53.149Z,63.79
2018-09-11T14:27:21.901Z,62.74
2018-09-11T14:29:50.842Z,62.48
2018-09-11T14:32:19.683Z,63.08
2018-09-11T14:34:48.416Z,63.94
2018-09-11T14:37:17.143Z,63.43
2018-09-11T14:39:45.882Z,63.87
2018-09-11T14:42:14.919Z,63.73
2018-09-11T14:44:43.761Z,63.79
2018-09-11T14:47:12.523Z,64.00
2018-09-11T14:49:41.419Z,63.81
2018-09-11T14:52:10.589Z,62.37
2018-09-11T14:54:39.811Z,61.62
2018-09-11T14:57:08.616Z,60.20
2018-09-11T14:59:37.464Z,61.21
2018-09-11T15:02:06.234Z,61.16
2018-09-11T15:04:34.923Z,61.33
2018-09-11T15:07:04.126Z,61.34
2018-09-11T15:09:32.725Z,60.81
2018-09-11T15:12:01.566Z,60.88
2018-09-11T15:14:30.730Z,60.65
2018-09-11T15:17:01.218Z,61.18
2018-09-11T15:19:30.420Z,61.46
2018-09-11T15:21:59.342Z,61.03
2018-09-11T15:24:28.804Z,61.05
2018-09-11T15:26:57.457Z,61.62
2018-09-11T15:29:26.118Z,62.37
2018-09-11T15:31:54.857Z,62.17
2018-09-11T15:34:23.578Z,63.13
2018-09-11T15:36:52.183Z,63.11
2018-09-11T15:39:20.915Z,64.18
2018-09-11T15:41:49.976Z,64.14
2018-09-11T15:44:18.770Z,64.04
2018-09-11T15:46:47.674Z,63.74
2018-09-11T15:49:16.489Z,63.80
2018-09-11T15:51:45.237Z,64.19
2018-09-11T15:54:14.156Z,64.49
2018-09-11T15:56:43.131Z,64.15
2018-09-11T15:59:11.937Z,64.05
2018-09-11T16:01:40.625Z,64.05
2018-09-11T16:04:09.282Z,64.33
2018-09-11T16:06:38.257Z,63.99
2018-09-11T16:09:10.271Z,63.78
2018-09-11T16:11:39.909Z,64.27
2018-09-11T16:14:09.402Z,63.96
2018-09-11T16:16:38.504Z,64.28
2018-09-11T16:19:07.375Z,64.33
2018-09-11T16:21:36.519Z,64.21
2018-09-11T16:24:06.345Z,64.33
2018-09-11T16:26:35.488Z,64.71
2018-09-11T16:29:05.168Z,65.09
2018-09-11T16:31:34.187Z,65.64
2018-09-11T16:34:02.866Z,65.61
2018-09-11T16:36:32.163Z,65.38
2018-09-11T16:39:00.935Z,66.25
2018-09-11T16:41:29.961Z,66.52
2018-09-11T16:43:58.754Z,67.25
2018-09-11T16:46:28.083Z,67.63
2018-09-11T16:48:56.756Z,67.80
2018-09-11T16:51:25.894Z,68.42
2018-09-11T16:53:55.972Z,68.97
2018-09-11T16:56:25.435Z,69.17
2018-09-11T16:58:54.903Z,70.43
2018-09-11T17:01:23.587Z,69.99
2018-09-11T17:03:52.465Z,70.37
2018-09-11T17:06:21.092Z,70.81
2018-09-11T17:08:51.154Z,70.96
2018-09-11T17:11:20.124Z,70.85
2018-09-11T17:13:48.949Z,71.30
2018-09-11T17:16:17.952Z,71.13
2018-09-11T17:18:47.049Z,71.67
2018-09-11T17:21:16.185Z,71.97
2018-09-11T17:23:44.886Z,71.94
2018-09-11T17:26:14.387Z,72.47
2018-09-11T17:28:43.492Z,73.02
2018-09-11T17:31:12.419Z,72.40
2018-09-11T17:33:41.354Z,72.37
2018-09-11T17:36:10.422Z,72.13
2018-09-11T17:38:39.226Z,72.99
2018-09-11T17:41:08.312Z,73.26
2018-09-11T17:43:37.259Z,72.68
2018-09-11T17:46:05.887Z,73.29
2018-09-11T17:48:35.047Z,73.24
2018-09-11T17:51:03.948Z,73.27
2018-09-11T17:53:33.117Z,72.86
2018-09-11T17:56:02.075Z,73.17
2018-09-11T17:58:30.798Z,72.84
2018-09-11T18:00:59.926Z,73.04
2018-09-11T18:03:28.816Z,73.30
2018-09-11T18:06:00.747Z,73.24
2018-09-11T18:08:29.524Z,73.27
2018-09-11T18:10:58.746Z,73.27
2018-09-11T18:13:27.429Z,73.95
2018-09-11T18:15:56.050Z,73.21
2018-09-11T18:18:25.626Z,73.62
2018-09-11T18:20:54.558Z,74.44
2018-09-11T18:23:23.537Z,74.49
2018-09-11T18:25:52.261Z,74.79
2018-09-11T18:28:20.961Z,74.62
2018-09-11T18:30:49.903Z,75.08
2018-09-11T18:33:18.802Z,75.46
2018-09-11T18:35:47.858Z,75.33
2018-09-11T18:38:16.914Z,74.95
2018-09-11T18:40:45.888Z,75.18
2018-09-11T18:43:14.709Z,75.30
2018-09-11T18:45:44.242Z,75.53
2018-09-11T18:48:12.972Z,75.67
2018-09-11T18:50:41.897Z,75.71
2018-09-11T18:53:10.632Z,76.50
2018-09-11T18:55:39.640Z,76.32
2018-09-11T18:58:09.335Z,76.39
2018-09-11T19:00:38.087Z,76.18
2018-09-11T19:03:07.028Z,76.81
2018-09-11T19:05:36.347Z,76.76
2018-09-11T19:08:05.546Z,77.70
2018-09-11T19:10:34.432Z,77.21
2018-09-11T19:13:03.685Z,77.01
2018-09-11T19:15:32.534Z,77.44
2018-09-11T19:18:01.356Z,78.04
2018-09-11T19:20:30.618Z,77.39
2018-09-11T19:22:59.764Z,77.61
2018-09-11T19:25:28.433Z,78.62
2018-09-11T19:27:57.247Z,77.85
2018-09-11T19:30:26.117Z,78.04
2018-09-11T19:32:54.870Z,78.37
2018-09-11T19:35:23.593Z,78.41
2018-09-11T19:37:52.748Z,78.49
2018-09-11T19:40:21.469Z,78.24
2018-09-11T19:42:50.194Z,78.53
2018-09-11T19:45:19.033Z,78.82
2018-09-11T19:47:47.788Z,78.69
2018-09-11T19:50:17.393Z,78.77
2018-09-11T19:52:46.645Z,79.49
2018-09-11T19:55:15.434Z,79.82
2018-09-11T19:57:44.448Z,79.41
2018-09-11T20:00:13.677Z,80.29
2018-09-11T20:02:42.534Z,80.15
2018-09-11T20:05:11.494Z,79.88
2018-09-11T20:07:40.562Z,79.90
2018-09-11T20:10:09.462Z,80.69
2018-09-11T20:12:38.259Z,80.10
2018-09-11T20:15:07.748Z,80.30
2018-09-11T20:17:36.570Z,80.34
2018-09-11T20:20:05.572Z,80.67
2018-09-11T20:22:34.888Z,81.63
2018-09-11T20:25:03.807Z,81.38
2018-09-11T20:27:32.796Z,81.76
2018-09-11T20:30:01.687Z,81.02
2018-09-11T20:32:30.826Z,80.64
2018-09-11T20:34:59.650Z,80.70
2018-09-11T20:37:28.686Z,80.81
2018-09-11T20:39:57.365Z,80.70
2018-09-11T20:42:26.265Z,80.43
2018-09-11T20:44:55.173Z,80.66
2018-09-11T20:47:24.132Z,80.68
2018-09-11T20:49:53.099Z,80.84
2018-09-11T20:52:21.824Z,80.56
2018-09-11T20:54:50.547Z,81.05
2018-09-11T20:57:19.621Z,80.72
2018-09-11T20:59:48.250Z,80.68
2018-09-11T21:02:17.111Z,80.74
2018-09-11T21:04:45.852Z,81.23
2018-09-11T21:07:14.808Z,80.94
2018-09-11T21:09:43.533Z,81.28
2018-09-11T21:12:12.331Z,81.34
2018-09-11T21:14:41.331Z,81.18
2018-09-11T21:17:10.596Z,81.19
2018-09-11T21:19:39.942Z,81.80
2018-09-11T21:22:08.730Z,81.55
2018-09-11T21:24:37.584Z,81.36
2018-09-11T21:27:06.493Z,81.31
2018-09-11T21:29:35.236Z,81.02
2018-09-11T21:32:04.063Z,81.37
2018-09-11T21:34:32.815Z,81.12
2018-09-11T21:37:01.445Z,81.06
2018-09-11T21:39:30.171Z,81.29
2018-09-11T21:41:59.069Z,80.79
2018-09-11T21:44:27.889Z,80.87
2018-09-11T21:46:56.777Z,80.58
2018-09-11T21:49:25.523Z,80.85
2018-09-11T21:51:54.397Z,80.30
2018-09-11T21:54:23.243Z,80.67
2018-09-11T21:56:52.178Z,80.53
2018-09-11T21:59:21.443Z,80.79
2018-09-11T22:01:53.125Z,80.91
2018-09-11T22:04:22.826Z,80.72
2018-09-11T22:06:52.059Z,81.63
2018-09-11T22:09:21.028Z,81.83
2018-09-11T22:11:49.820Z,81.76
2018-09-11T22:14:18.608Z,81.76
2018-09-11T22:16:47.329Z,81.53
2018-09-11T22:19:16.263Z,81.55
2018-09-11T22:21:45.056Z,81.04
2018-09-11T22:24:14.074Z,81.53
2018-09-11T22:26:43.072Z,81.52
2018-09-11T22:29:12.026Z,82.06
2018-09-11T22:31:40.855Z,82.58
2018-09-11T22:34:09.656Z,82.33
2018-09-11T22:36:38.379Z,82.61
2018-09-11T22:39:08.351Z,82.75
2018-09-11T22:41:37.292Z,82.90
2018-09-11T22:44:06.029Z,83.35
2018-09-11T22:46:34.924Z,83.05
2018-09-11T22:49:04.159Z,83.01
2018-09-11T22:51:32.887Z,83.18
2018-09-11T22:54:01.727Z,83.27
2018-09-11T22:56:30.615Z,82.69
2018-09-11T22:58:59.592Z,82.94
2018-09-11T23:01:28.394Z,82.88
2018-09-11T23:03:57.219Z,82.34
2018-09-11T23:06:26.012Z,82.79
2018-09-11T23:08:54.786Z,82.14
2018-09-11T23:11:23.437Z,82.34
2018-09-11T23:13:52.307Z,82.42
2018-09-11T23:16:21.573Z,82.09
2018-09-11T23:18:50.471Z,81.94
2018-09-11T23:21:19.144Z,81.97
2018-09-11T23:23:47.811Z,82.17
2018-09-11T23:26:16.588Z,82.11
2018-09-11T23:28:45.374Z,82.53
2018-09-11T23:31:14.455Z,82.29
2018-09-11T23:33:43.244Z,82.32
2018-09-11T23:36:12.002Z,81.93
2018-09-11T23:38:40.761Z,82.45
2018-09-11T23:41:09.740Z,82.03
2018-09-11T23:43:38.542Z,82.16
2018-09-11T23:46:07.347Z,82.11
2018-09-11T23:48:36.508Z,81.92
2018-09-11T23:51:05.134Z,81.94
2018-09-11T23:53:34.138Z,82.17
2018-09-11T23:56:02.869Z,82.21
2018-09-11T23:58:31.898Z,82.23
